Crane, Oregon
Current Conditions -  °F | °C
As of 10:53 AM on Monday 20 Oct 2014 (Local Time) from KBNO Reporting Station
Clear Clear  
Wind Chill: 60°   Ceiling: Unl
Heat Index: 60°   Visibility: 10mi
Dew Point: 27°   Wind: 7mph
Humidity: 28%   Direction: 130°SE
Pressure: 29.89"   Gusts: NA
Location:  43.41°N, 118.58°W
Report Text: KBNO 201753Z AUTO 13006KT 10SM CLR 16/M03 A2989 RMK AO2 SLP115 T01561028 10156 21039 58003
Loading
Personal Weather Stations






























Interactive Weather Map New forecast layout! Learn more

10-Day Weather Forecast

Advertisements
Track Severe Weather on mobile